createdAt,value
2023-03-06T00:00:38.560Z,94518.38
2023-03-06T00:03:18.764Z,94520.40
2023-03-06T00:05:48.003Z,94518.49
2023-03-06T00:08:16.096Z,94518.96
2023-03-06T00:10:44.593Z,94517.95
2023-03-06T00:13:14.833Z,94518.89
2023-03-06T00:15:43.227Z,94523.21
2023-03-06T00:18:11.675Z,94523.00
2023-03-06T00:20:42.259Z,94520.55
2023-03-06T00:23:11.617Z,94518.01
2023-03-06T00:25:44.087Z,94516.30
2023-03-06T00:28:14.882Z,94516.29
2023-03-06T00:30:44.011Z,94516.87
2023-03-06T00:33:12.263Z,94515.02
2023-03-06T00:35:41.411Z,94516.41
2023-03-06T00:38:12.145Z,94522.52
2023-03-06T00:40:40.363Z,94519.95
2023-03-06T00:43:08.325Z,94517.76
2023-03-06T00:45:36.747Z,94517.55
2023-03-06T00:48:05.496Z,94517.82
2023-03-06T00:50:35.329Z,94519.20
2023-03-06T00:53:03.698Z,94518.23
2023-03-06T00:55:33.696Z,94526.69
2023-03-06T00:58:01.869Z,94526.38
2023-03-06T01:00:29.889Z,94523.61
2023-03-06T01:02:57.867Z,94524.52
2023-03-06T01:05:26.643Z,94522.45
2023-03-06T01:07:54.895Z,94523.11
2023-03-06T01:10:23.168Z,94519.52
2023-03-06T01:12:51.146Z,94518.26
2023-03-06T01:15:20.700Z,94520.63
2023-03-06T01:17:53.543Z,94517.11
2023-03-06T01:20:22.202Z,94513.43
2023-03-06T01:22:50.421Z,94519.08
2023-03-06T01:25:18.489Z,94514.77
2023-03-06T01:27:46.576Z,94513.17
2023-03-06T01:30:15.077Z,94512.89
2023-03-06T01:32:43.306Z,94511.40
2023-03-06T01:35:12.820Z,94513.57
2023-03-06T01:37:41.724Z,94511.86
2023-03-06T01:40:12.577Z,94519.23
2023-03-06T01:42:42.395Z,94511.19
2023-03-06T01:45:13.565Z,94515.12
2023-03-06T01:47:41.577Z,94511.64
2023-03-06T01:50:13.023Z,94513.44
2023-03-06T01:52:48.255Z,94511.85
2023-03-06T01:55:20.668Z,94508.20
2023-03-06T01:57:53.317Z,94509.31
2023-03-06T02:00:27.057Z,94502.95
2023-03-06T02:03:04.131Z,94510.95
2023-03-06T02:05:33.488Z,94512.48
2023-03-06T02:08:04.170Z,94510.55
2023-03-06T02:10:32.523Z,94510.11
2023-03-06T02:13:01.343Z,94509.64
2023-03-06T02:15:29.756Z,94511.70
2023-03-06T02:18:00.071Z,94510.91
2023-03-06T02:20:33.951Z,94510.91
2023-03-06T02:23:04.729Z,94515.80
2023-03-06T02:25:41.086Z,94507.34
2023-03-06T02:28:13.359Z,94510.63
2023-03-06T02:30:43.290Z,94514.32
2023-03-06T02:33:19.023Z,94519.13
2023-03-06T02:35:52.194Z,94519.84
2023-03-06T02:38:25.034Z,94521.19
2023-03-06T02:40:53.686Z,94524.31
2023-03-06T02:43:26.183Z,94519.36
2023-03-06T02:45:54.833Z,94515.80
2023-03-06T02:48:23.049Z,94523.48
2023-03-06T02:50:51.217Z,94526.58
2023-03-06T02:53:20.446Z,94531.08
2023-03-06T02:55:49.672Z,94527.84
2023-03-06T02:58:19.967Z,94532.39
2023-03-06T03:00:50.278Z,94534.04
2023-03-06T03:03:18.561Z,94536.20
2023-03-06T03:05:47.203Z,94533.27
2023-03-06T03:08:24.648Z,94535.16
2023-03-06T03:10:56.438Z,94532.20
2023-03-06T03:13:26.137Z,94534.17
2023-03-06T03:16:14.071Z,94531.48
2023-03-06T03:18:48.133Z,94531.05
2023-03-06T03:21:18.459Z,94531.98
2023-03-06T03:23:48.204Z,94526.54
2023-03-06T03:26:19.425Z,94527.33
2023-03-06T03:28:59.243Z,94529.54
2023-03-06T03:31:27.870Z,94531.19
2023-03-06T03:33:56.416Z,94527.94
2023-03-06T03:36:26.232Z,94528.52
2023-03-06T03:38:55.743Z,94523.43
2023-03-06T03:41:24.224Z,94526.27
2023-03-06T03:43:52.547Z,94529.07
2023-03-06T03:46:21.932Z,94530.84
2023-03-06T03:48:50.815Z,94532.19
2023-03-06T03:51:19.256Z,94528.80
2023-03-06T03:53:49.805Z,94534.88
2023-03-06T03:56:20.577Z,94534.88
2023-03-06T03:58:55.852Z,94534.56
2023-03-06T04:01:25.535Z,94538.11
2023-03-06T04:03:53.919Z,94535.16
2023-03-06T04:06:22.207Z,94532.95
2023-03-06T04:08:50.290Z,94535.35
2023-03-06T04:11:18.340Z,94542.42
2023-03-06T04:13:46.550Z,94536.98
2023-03-06T04:16:15.107Z,94534.11
2023-03-06T04:18:43.224Z,94537.02
2023-03-06T04:21:11.271Z,94534.42
2023-03-06T04:23:39.965Z,94533.63
2023-03-06T04:26:08.145Z,94535.11
2023-03-06T04:28:36.222Z,94538.92
2023-03-06T04:31:04.855Z,94537.41
2023-03-06T04:33:33.154Z,94538.33
2023-03-06T04:36:01.789Z,94533.66
2023-03-06T04:38:31.805Z,94536.27
2023-03-06T04:40:59.938Z,94533.83
2023-03-06T04:43:28.094Z,94537.10
2023-03-06T04:45:58.412Z,94536.23
2023-03-06T04:48:26.429Z,94534.90
2023-03-06T04:50:54.653Z,94534.59
2023-03-06T04:53:22.721Z,94537.41
2023-03-06T04:55:50.831Z,94540.33
2023-03-06T04:58:19.202Z,94540.13
2023-03-06T05:00:47.434Z,94544.73
2023-03-06T05:03:15.634Z,94546.42
2023-03-06T05:05:43.774Z,94543.73
2023-03-06T05:08:16.225Z,94542.61
2023-03-06T05:10:45.805Z,94548.90
2023-03-06T05:13:14.076Z,94548.90
2023-03-06T05:15:42.294Z,94555.52
2023-03-06T05:18:10.445Z,94557.95
2023-03-06T05:20:38.427Z,94559.83
2023-03-06T05:23:06.637Z,94559.81
2023-03-06T05:25:34.773Z,94561.90
2023-03-06T05:28:03.008Z,94563.62
2023-03-06T05:30:31.357Z,94568.27
2023-03-06T05:33:00.877Z,94568.45
2023-03-06T05:35:29.263Z,94566.55
2023-03-06T05:37:57.702Z,94569.52
2023-03-06T05:40:26.492Z,94566.67
2023-03-06T05:42:54.774Z,94572.98
2023-03-06T05:45:22.991Z,94573.84
2023-03-06T05:47:50.999Z,94577.64
2023-03-06T05:50:19.406Z,94580.66
2023-03-06T05:52:47.434Z,94577.85
2023-03-06T05:55:16.589Z,94578.90
2023-03-06T05:57:44.853Z,94577.91
2023-03-06T06:00:14.919Z,94574.44
2023-03-06T06:02:46.164Z,94576.48
2023-03-06T06:05:14.593Z,94577.69
2023-03-06T06:07:42.871Z,94580.98
2023-03-06T06:10:12.106Z,94586.90
2023-03-06T06:12:40.351Z,94586.62
2023-03-06T06:15:09.394Z,94585.86
2023-03-06T06:17:37.769Z,94586.52
2023-03-06T06:20:06.817Z,94585.48
2023-03-06T06:22:37.976Z,94582.51
2023-03-06T06:25:07.085Z,94584.36
2023-03-06T06:27:35.183Z,94585.05
2023-03-06T06:30:04.811Z,94586.30
2023-03-06T06:32:33.230Z,94587.22
2023-03-06T06:35:01.406Z,94589.48
2023-03-06T06:37:30.929Z,94588.42
2023-03-06T06:39:59.344Z,94591.40
2023-03-06T06:42:35.215Z,94592.85
2023-03-06T06:45:05.818Z,94591.33
2023-03-06T06:47:34.543Z,94585.25
2023-03-06T06:50:02.756Z,94580.69
2023-03-06T06:52:30.843Z,94582.76
2023-03-06T06:54:59.175Z,94582.55
2023-03-06T06:57:27.219Z,94581.24
2023-03-06T06:59:55.464Z,94577.17
2023-03-06T07:02:23.799Z,94576.41
2023-03-06T07:05:03.850Z,94581.47
2023-03-06T07:07:38.106Z,94582.26
2023-03-06T07:10:14.299Z,94583.73
2023-03-06T07:12:43.238Z,94589.60
2023-03-06T07:15:12.597Z,94588.88
2023-03-06T07:17:40.875Z,94589.73
2023-03-06T07:20:10.735Z,94589.10
2023-03-06T07:22:50.440Z,94592.21
2023-03-06T07:25:20.455Z,94588.40
2023-03-06T07:27:53.914Z,94584.42
2023-03-06T07:30:23.757Z,94588.94
2023-03-06T07:32:54.345Z,94589.94
2023-03-06T07:35:23.024Z,94589.63
2023-03-06T07:37:51.807Z,94593.24
2023-03-06T07:40:20.604Z,94588.09
2023-03-06T07:42:49.072Z,94592.95
2023-03-06T07:45:20.018Z,94590.59
2023-03-06T07:47:50.753Z,94591.50
2023-03-06T07:50:20.825Z,94590.99
2023-03-06T07:52:50.268Z,94590.89
2023-03-06T07:55:18.648Z,94592.05
2023-03-06T07:57:49.446Z,94596.23
2023-03-06T08:00:18.819Z,94597.42
2023-03-06T08:02:47.799Z,94595.40
2023-03-06T08:05:16.899Z,94599.44
2023-03-06T08:07:45.622Z,94599.16
2023-03-06T08:10:15.174Z,94600.99
2023-03-06T08:12:43.671Z,94605.46
2023-03-06T08:15:12.758Z,94605.98
2023-03-06T08:17:41.134Z,94607.95
2023-03-06T08:20:10.538Z,94610.24
2023-03-06T08:22:39.232Z,94613.31
2023-03-06T08:25:08.818Z,94615.55
2023-03-06T08:27:37.645Z,94614.97
2023-03-06T08:30:08.130Z,94613.06
2023-03-06T08:32:37.863Z,94612.58
2023-03-06T08:35:07.028Z,94620.00
2023-03-06T08:37:35.561Z,94620.45
2023-03-06T08:40:04.916Z,94620.98
2023-03-06T08:42:33.206Z,94621.52
2023-03-06T08:45:01.504Z,94625.42
2023-03-06T08:47:30.504Z,94625.98
2023-03-06T08:50:00.587Z,94622.39
2023-03-06T08:52:29.259Z,94620.40
2023-03-06T08:55:03.750Z,94624.42
2023-03-06T08:57:32.250Z,94629.76
2023-03-06T09:00:00.508Z,94630.69
2023-03-06T09:02:29.108Z,94627.00
2023-03-06T09:04:59.510Z,94626.38
2023-03-06T09:07:28.246Z,94625.58
2023-03-06T09:09:59.705Z,94629.35
2023-03-06T09:12:29.276Z,94627.27
2023-03-06T09:14:58.894Z,94630.45
2023-03-06T09:17:27.203Z,94634.20
2023-03-06T09:19:55.495Z,94631.57
2023-03-06T09:22:23.548Z,94637.24
2023-03-06T09:24:52.230Z,94637.30
2023-03-06T09:27:20.405Z,94640.94
2023-03-06T09:29:48.603Z,94637.35
2023-03-06T09:32:16.899Z,94636.55
2023-03-06T09:34:45.206Z,94632.61
2023-03-06T09:37:14.844Z,94633.86
2023-03-06T09:39:43.985Z,94638.99
2023-03-06T09:42:18.428Z,94635.40
2023-03-06T09:44:59.417Z,94637.77
2023-03-06T09:47:39.592Z,94638.03
2023-03-06T09:50:17.447Z,94634.75
2023-03-06T09:52:52.844Z,94638.14
2023-03-06T09:55:28.220Z,94638.98
2023-03-06T09:58:07.177Z,94636.79
2023-03-06T10:00:54.286Z,94634.94
2023-03-06T10:03:30.453Z,94628.70
2023-03-06T10:06:19.849Z,94632.77
2023-03-06T10:08:58.174Z,94631.33
2023-03-06T10:11:44.895Z,94630.67
2023-03-06T10:14:34.974Z,94633.02
2023-03-06T10:17:05.412Z,94628.67
2023-03-06T10:19:40.097Z,94627.65
2023-03-06T10:22:14.131Z,94628.95
2023-03-06T10:24:48.289Z,94630.77
2023-03-06T10:27:28.707Z,94628.85
2023-03-06T10:30:18.461Z,94622.07
2023-03-06T10:32:56.274Z,94615.92
2023-03-06T10:35:32.642Z,94614.68
2023-03-06T10:38:21.059Z,94616.42
2023-03-06T10:40:54.584Z,94615.23
2023-03-06T10:43:23.820Z,94615.27
2023-03-06T10:45:53.769Z,94608.98
2023-03-06T10:48:28.257Z,94606.02
2023-03-06T10:51:22.528Z,94598.98
2023-03-06T10:54:02.957Z,94594.66
2023-03-06T10:56:38.741Z,94584.73
2023-03-06T10:59:25.448Z,94583.20
2023-03-06T11:02:13.862Z,94571.93
2023-03-06T11:04:47.172Z,94564.81
2023-03-06T11:07:15.693Z,94564.27
2023-03-06T11:10:05.410Z,94560.88
2023-03-06T11:12:39.394Z,94553.98
2023-03-06T11:15:10.208Z,94558.34
2023-03-06T11:17:50.993Z,94556.48
2023-03-06T11:20:21.328Z,94560.67
2023-03-06T11:23:16.910Z,94560.05
2023-03-06T11:25:50.615Z,94553.45
2023-03-06T11:28:27.739Z,94552.87
2023-03-06T11:31:20.210Z,94556.20
2023-03-06T11:34:05.135Z,94556.79
2023-03-06T11:36:39.424Z,94551.41
2023-03-06T11:39:19.681Z,94545.48
2023-03-06T11:42:04.490Z,94544.77
2023-03-06T11:44:43.634Z,94542.96
2023-03-06T11:47:17.489Z,94538.80
2023-03-06T11:50:06.214Z,94535.77
2023-03-06T11:52:54.378Z,94527.42
2023-03-06T11:55:48.601Z,94523.49
2023-03-06T11:58:25.968Z,94518.48
2023-03-06T12:01:06.734Z,94514.41
2023-03-06T12:03:52.928Z,94510.84
2023-03-06T12:06:39.083Z,94508.37
2023-03-06T12:09:13.559Z,94504.67
2023-03-06T12:12:00.757Z,94500.97
2023-03-06T12:14:51.892Z,94499.67
2023-03-06T12:17:26.515Z,94493.33
2023-03-06T12:20:42.916Z,94499.48
2023-03-06T12:23:40.520Z,94499.09
2023-03-06T12:26:30.910Z,94498.89
2023-03-06T12:29:11.029Z,94494.66
2023-03-06T12:32:06.559Z,94493.17
2023-03-06T12:35:07.054Z,94489.69
2023-03-06T12:38:14.274Z,94483.77
2023-03-06T12:41:05.802Z,94479.59
2023-03-06T12:43:38.402Z,94477.27
2023-03-06T12:46:22.261Z,94478.38
2023-03-06T12:49:11.189Z,94473.95
2023-03-06T12:51:41.915Z,94472.16
2023-03-06T12:54:11.334Z,94471.17
2023-03-06T12:56:40.611Z,94470.79
2023-03-06T12:59:28.485Z,94470.59
2023-03-06T13:02:18.059Z,94468.52
2023-03-06T13:05:09.645Z,94466.30
2023-03-06T13:07:56.820Z,94464.08
2023-03-06T13:10:36.169Z,94462.25
2023-03-06T13:13:23.065Z,94454.09
2023-03-06T13:16:11.198Z,94448.73
2023-03-06T13:18:42.276Z,94447.37
2023-03-06T13:21:42.447Z,94449.38
2023-03-06T13:24:24.011Z,94449.22
2023-03-06T13:26:57.214Z,94447.58
2023-03-06T13:29:37.726Z,94447.05
2023-03-06T13:32:13.694Z,94442.72
2023-03-06T13:34:47.018Z,94441.69
2023-03-06T13:37:23.234Z,94439.69
2023-03-06T13:40:00.496Z,94434.04
2023-03-06T13:42:36.641Z,94424.26
2023-03-06T13:45:17.101Z,94418.38
2023-03-06T13:48:15.515Z,94425.98
2023-03-06T13:50:40.577Z,94420.17
2023-03-06T13:53:19.752Z,94417.62
2023-03-06T13:56:27.307Z,94410.60
2023-03-06T13:59:04.696Z,94403.91
2023-03-06T14:01:44.431Z,94408.20
2023-03-06T14:04:26.306Z,94401.75
2023-03-06T14:07:11.707Z,94402.46
2023-03-06T14:09:45.710Z,94402.24
2023-03-06T14:12:36.206Z,94401.52
2023-03-06T14:15:17.912Z,94403.25
2023-03-06T14:18:02.662Z,94404.13
2023-03-06T14:20:39.899Z,94402.88
2023-03-06T14:23:32.511Z,94402.90
2023-03-06T14:26:23.952Z,94402.20
2023-03-06T14:28:52.009Z,94405.64
2023-03-06T14:31:23.181Z,94407.41
2023-03-06T14:34:03.733Z,94402.42
2023-03-06T14:36:44.284Z,94400.82
2023-03-06T14:39:16.808Z,94399.92
2023-03-06T14:41:44.892Z,94393.84
2023-03-06T14:44:19.628Z,94395.92
2023-03-06T14:46:56.464Z,94396.14
2023-03-06T14:49:26.432Z,94394.85
2023-03-06T14:52:00.678Z,94396.52
2023-03-06T14:54:30.322Z,94399.68
2023-03-06T14:57:04.040Z,94403.48
2023-03-06T14:59:41.302Z,94404.79
2023-03-06T15:02:16.534Z,94406.58
2023-03-06T15:04:49.148Z,94402.98
2023-03-06T15:07:25.827Z,94400.61
2023-03-06T15:09:55.354Z,94397.75
2023-03-06T15:12:23.472Z,94391.91
2023-03-06T15:15:26.164Z,94396.02
2023-03-06T15:17:54.555Z,94391.59
2023-03-06T15:20:53.649Z,94392.04
2023-03-06T15:23:34.243Z,94391.15
2023-03-06T15:26:33.680Z,94386.79
2023-03-06T15:29:11.034Z,94385.08
2023-03-06T15:31:42.199Z,94381.14
2023-03-06T15:34:10.338Z,94386.34
2023-03-06T15:36:41.586Z,94388.28
2023-03-06T15:39:40.215Z,94383.97
2023-03-06T15:42:23.608Z,94386.77
2023-03-06T15:44:57.913Z,94384.83
2023-03-06T15:47:26.334Z,94381.03
2023-03-06T15:49:55.122Z,94383.23
2023-03-06T15:52:23.712Z,94382.98
2023-03-06T15:54:51.758Z,94380.45
2023-03-06T15:57:24.071Z,94380.42
2023-03-06T15:59:52.650Z,94378.82
2023-03-06T16:02:22.326Z,94382.30
2023-03-06T16:04:51.378Z,94379.88
2023-03-06T16:07:20.796Z,94382.25
2023-03-06T16:09:49.176Z,94379.89
2023-03-06T16:12:21.831Z,94381.49
2023-03-06T16:14:50.050Z,94380.83
2023-03-06T16:17:18.184Z,94381.42
2023-03-06T16:19:46.354Z,94375.40
2023-03-06T16:22:14.710Z,94374.98
2023-03-06T16:24:43.529Z,94370.16
2023-03-06T16:27:18.995Z,94372.00
2023-03-06T16:29:47.125Z,94376.02
2023-03-06T16:32:15.356Z,94372.39
2023-03-06T16:34:43.504Z,94370.35
2023-03-06T16:37:13.388Z,94368.71
2023-03-06T16:39:41.450Z,94370.91
2023-03-06T16:42:10.090Z,94368.72
2023-03-06T16:44:38.622Z,94366.61
2023-03-06T16:47:11.995Z,94362.87
2023-03-06T16:49:40.163Z,94363.14
2023-03-06T16:52:11.000Z,94364.02
2023-03-06T16:54:39.157Z,94358.08
2023-03-06T16:57:07.183Z,94363.44
2023-03-06T16:59:35.309Z,94355.64
2023-03-06T17:02:03.868Z,94359.24
2023-03-06T17:04:31.933Z,94357.10
2023-03-06T17:07:00.036Z,94352.11
2023-03-06T17:09:28.328Z,94349.77
2023-03-06T17:11:56.457Z,94346.36
2023-03-06T17:14:24.491Z,94345.42
2023-03-06T17:16:53.790Z,94345.55
2023-03-06T17:19:22.105Z,94345.76
2023-03-06T17:21:50.188Z,94339.52
2023-03-06T17:24:18.291Z,94330.30
2023-03-06T17:26:47.015Z,94331.66
2023-03-06T17:29:15.516Z,94330.32
2023-03-06T17:31:43.787Z,94327.58
2023-03-06T17:34:12.174Z,94328.84
2023-03-06T17:36:40.442Z,94321.47
2023-03-06T17:39:08.473Z,94322.89
2023-03-06T17:41:36.476Z,94320.96
2023-03-06T17:44:04.978Z,94320.75
2023-03-06T17:46:34.652Z,94324.38
2023-03-06T17:49:02.916Z,94316.16
2023-03-06T17:51:30.942Z,94323.08
2023-03-06T17:53:59.162Z,94323.45
2023-03-06T17:56:27.792Z,94323.58
2023-03-06T17:58:57.031Z,94323.47
2023-03-06T18:01:30.358Z,94328.86
2023-03-06T18:03:58.699Z,94326.09
2023-03-06T18:06:30.197Z,94322.75
2023-03-06T18:08:58.862Z,94324.79
2023-03-06T18:11:27.834Z,94324.05
2023-03-06T18:13:56.295Z,94325.34
2023-03-06T18:16:26.132Z,94324.33
2023-03-06T18:18:56.753Z,94326.31
2023-03-06T18:21:25.692Z,94326.35
2023-03-06T18:23:53.954Z,94321.75
2023-03-06T18:26:27.891Z,94319.60
2023-03-06T18:29:03.719Z,94318.23
2023-03-06T18:31:35.075Z,94315.98
2023-03-06T18:34:06.774Z,94310.73
2023-03-06T18:36:35.949Z,94303.75
2023-03-06T18:39:08.735Z,94302.17
2023-03-06T18:41:37.692Z,94303.23
2023-03-06T18:44:06.097Z,94302.89
2023-03-06T18:46:36.936Z,94305.40
2023-03-06T18:49:06.361Z,94299.27
2023-03-06T18:51:34.907Z,94303.95
2023-03-06T18:54:05.009Z,94304.22
2023-03-06T18:56:34.155Z,94304.17
2023-03-06T18:59:05.101Z,94304.15
2023-03-06T19:01:33.839Z,94293.46
2023-03-06T19:04:03.949Z,94300.91
2023-03-06T19:06:32.608Z,94302.59
2023-03-06T19:09:02.296Z,94299.56
2023-03-06T19:11:32.263Z,94300.67
2023-03-06T19:14:00.806Z,94299.90
2023-03-06T19:16:30.616Z,94291.95
2023-03-06T19:18:59.289Z,94293.08
2023-03-06T19:21:28.644Z,94285.17
2023-03-06T19:23:57.422Z,94282.65
2023-03-06T19:26:27.153Z,94276.73
2023-03-06T19:28:55.476Z,94274.28
2023-03-06T19:31:26.596Z,94268.55
2023-03-06T19:33:56.946Z,94267.59
2023-03-06T19:36:28.697Z,94263.02
2023-03-06T19:38:58.798Z,94265.06
2023-03-06T19:41:27.508Z,94261.98
2023-03-06T19:43:57.221Z,94266.33
2023-03-06T19:46:26.924Z,94263.41
2023-03-06T19:48:57.185Z,94259.88
2023-03-06T19:51:26.369Z,94261.52
2023-03-06T19:53:56.014Z,94263.31
2023-03-06T19:56:26.840Z,94255.23
2023-03-06T19:58:55.402Z,94257.67
2023-03-06T20:01:25.124Z,94258.86
2023-03-06T20:03:59.467Z,94257.02
2023-03-06T20:06:31.205Z,94248.59
2023-03-06T20:09:01.420Z,94245.05
2023-03-06T20:11:30.253Z,94244.63
2023-03-06T20:13:59.711Z,94236.08
2023-03-06T20:16:29.227Z,94236.88
2023-03-06T20:19:00.153Z,94232.52
2023-03-06T20:21:30.699Z,94233.92
2023-03-06T20:23:59.493Z,94233.90
2023-03-06T20:26:28.657Z,94226.63
2023-03-06T20:28:57.391Z,94226.54
2023-03-06T20:31:28.582Z,94228.50
2023-03-06T20:33:59.290Z,94229.48
2023-03-06T20:36:36.378Z,94230.97
2023-03-06T20:39:07.547Z,94234.29
2023-03-06T20:41:35.999Z,94233.24
2023-03-06T20:44:06.990Z,94229.55
2023-03-06T20:46:36.236Z,94225.70
2023-03-06T20:49:05.059Z,94225.86
2023-03-06T20:51:36.217Z,94231.42
2023-03-06T20:54:05.486Z,94228.45
2023-03-06T20:56:35.620Z,94230.27
2023-03-06T20:59:04.021Z,94228.93
2023-03-06T21:01:38.521Z,94231.69
2023-03-06T21:04:11.311Z,94233.71
2023-03-06T21:06:40.409Z,94236.69
2023-03-06T21:09:08.589Z,94229.67
2023-03-06T21:11:36.768Z,94230.84
2023-03-06T21:14:05.476Z,94225.42
2023-03-06T21:16:34.022Z,94218.55
2023-03-06T21:19:02.636Z,94221.64
2023-03-06T21:21:32.998Z,94219.31
2023-03-06T21:24:02.500Z,94224.63
2023-03-06T21:26:33.965Z,94222.41
2023-03-06T21:29:03.160Z,94228.16
2023-03-06T21:31:33.570Z,94233.55
2023-03-06T21:34:04.611Z,94230.91
2023-03-06T21:36:34.083Z,94227.93
2023-03-06T21:39:03.946Z,94226.58
2023-03-06T21:41:32.931Z,94232.20
2023-03-06T21:44:04.137Z,94236.34
2023-03-06T21:46:32.821Z,94238.01
2023-03-06T21:49:03.958Z,94235.22
2023-03-06T21:51:32.501Z,94235.30
2023-03-06T21:54:02.224Z,94225.77
2023-03-06T21:56:30.425Z,94229.52
2023-03-06T21:58:58.880Z,94227.80
2023-03-06T22:01:29.050Z,94228.28
2023-03-06T22:03:58.390Z,94225.82
2023-03-06T22:06:28.472Z,94222.96
2023-03-06T22:08:58.999Z,94219.99
2023-03-06T22:11:31.581Z,94226.48
2023-03-06T22:14:00.056Z,94221.35
2023-03-06T22:16:28.686Z,94223.66
2023-03-06T22:18:57.737Z,94226.30
2023-03-06T22:21:25.707Z,94227.82
2023-03-06T22:23:59.745Z,94233.95
2023-03-06T22:26:29.303Z,94236.96
2023-03-06T22:28:57.502Z,94235.46
2023-03-06T22:31:28.594Z,94233.27
2023-03-06T22:33:59.819Z,94235.33
2023-03-06T22:36:32.731Z,94236.57
2023-03-06T22:39:02.549Z,94233.39
2023-03-06T22:41:31.410Z,94232.38
2023-03-06T22:44:02.350Z,94229.63
2023-03-06T22:46:31.896Z,94230.95
2023-03-06T22:49:00.767Z,94235.36
2023-03-06T22:51:29.660Z,94234.55
2023-03-06T22:53:58.326Z,94231.52
2023-03-06T22:56:26.498Z,94229.25
2023-03-06T22:58:54.556Z,94226.84
2023-03-06T23:01:27.764Z,94225.94
2023-03-06T23:04:00.919Z,94223.80
2023-03-06T23:06:36.537Z,94223.59
2023-03-06T23:09:17.332Z,94224.64
2023-03-06T23:12:04.645Z,94228.71
2023-03-06T23:14:51.939Z,94234.80
2023-03-06T23:17:38.656Z,94240.52
2023-03-06T23:20:25.121Z,94236.96
2023-03-06T23:23:11.900Z,94236.35
2023-03-06T23:25:43.910Z,94235.30
2023-03-06T23:28:12.432Z,94240.65
2023-03-06T23:30:41.981Z,94237.88
2023-03-06T23:33:10.611Z,94242.58
2023-03-06T23:35:39.307Z,94241.26
2023-03-06T23:38:07.845Z,94248.86
2023-03-06T23:40:37.833Z,94248.77
2023-03-06T23:43:06.288Z,94246.45
2023-03-06T23:45:34.464Z,94242.69
2023-03-06T23:48:02.616Z,94244.68
2023-03-06T23:50:31.942Z,94246.70
2023-03-06T23:53:00.019Z,94250.24
2023-03-06T23:55:28.164Z,94254.44
2023-03-06T23:57:56.235Z,94245.16
